Flight Track Log - Related Links

Times and Time Zones

All times are in EDT time to prevent confusion due to time zone crossing. See the UCA5001 flight status page for this flight to view local times or setup timezone preferences in your user account.

Time Position Orientation Groundspeed Altitude Reporting Facility
EDT Latitude Longitude Course Direction KTS MPH feet Rate Location/Type
Tue 10:15:00 AM 40.9704 -74.1205 North  Level Estimated
Tue 10:16:00 AM 41.0101 -74.1136 North  Level Estimated
Tue 10:17:00 AM 41.0498 -74.1066 North  Level Estimated
Tue 10:18:00 AM 41.0895 -74.0997 North  Level Estimated
Tue 10:19:00 AM 41.1291 -74.0928 North  Level Estimated
Tue 10:20:00 AM 41.1835 -74.0833 North  Level Estimated
Tue 10:21:00 AM 41.2378 -74.0737 North  Level Estimated
Tue 10:22:00 AM 41.2921 -74.0642 North  Level Estimated
Tue 10:23:00 AM 41.3464 -74.0546 North  Level Estimated
Tue 10:24:00 AM 41.4007 -74.0451 North  Level Estimated
Tue 10:25:00 AM 41.4550 -74.0355 North  Level Estimated
Tue 10:26:00 AM 41.5093 -74.0258 North  Level Estimated
Tue 10:27:00 AM 41.5636 -74.0162 North  Level Estimated
Tue 10:28:00 AM 41.6180 -74.0066 North  Level Estimated
Tue 10:29:00 AM 41.6723 -73.9969 North  Level Estimated
Tue 10:30:00 AM 41.7266 -73.9873 North  Level Estimated
Tue 10:31:00 AM 41.7809 -73.9776 North  Level Estimated
Tue 10:32:00 AM 41.8352 -73.9679 North  Level Estimated
Tue 10:33:00 AM 41.8895 -73.9581 North  Level Estimated
Tue 10:34:00 AM 41.9438 -73.9484 North  Level Estimated
Tue 10:35:00 AM 41.9981 -73.9386 North  Level Estimated
Tue 10:36:00 AM 42.0524 -73.9289 North  Level Estimated
Tue 10:37:00 AM 42.1067 -73.9191 North  Level Estimated
Tue 10:38:00 AM 42.1610 -73.9093 North  Level Estimated
Tue 10:39:00 AM 42.2153 -73.8995 North  Level Estimated
Tue 10:40:00 AM 42.2696 -73.8896 North  Level Estimated
Tue 10:41:00 AM 42.3239 -73.8798 North  Level Estimated
Tue 10:42:00 AM 42.3782 -73.8699 North  Level Estimated
Tue 10:43:00 AM 42.4325 -73.8600 North  Level Estimated
Tue 10:44:00 AM 42.4868 -73.8501 North  Level Estimated
Tue 10:45:00 AM 42.5411 -73.8401 North  Level Estimated
Tue 10:46:00 AM 42.5954 -73.8302 North  Level Estimated
Tue 10:47:00 AM 42.6497 -73.8203 North  Level Estimated
Tue 10:48:00 AM 42.7040 -73.8103 North  Level Estimated
Tue 10:49:00 AM 42.7491 -73.8020 North  Level Estimated
Tue 10:50:00 AM 42.7491 -73.8020 304° West  Level Estimated
Tue 10:51:00 AM 42.7491 -73.8020 304° West  Level Estimated
Tue 10:52:00 AM 42.7491 -73.8020 304° West  Level Estimated
Tue 10:53:00 AM 42.7491 -73.8020 304° West  Level Estimated
Tue 10:54:00 AM 42.7491 -73.8020 304° West  Level Estimated

Login

Don't have an account? Register now (free) for customized features, flight alerts, and more!